createdAt,value
2022-11-29T00:01:30.475Z,56.83
2022-11-29T00:05:42.107Z,62.90
2022-11-29T00:09:53.639Z,67.23
2022-11-29T00:14:06.791Z,60.03
2022-11-29T00:18:18.329Z,60.65
2022-11-29T00:22:30.146Z,62.93
2022-11-29T00:26:41.736Z,73.20
2022-11-29T00:30:53.360Z,65.13
2022-11-29T00:35:09.647Z,55.63
2022-11-29T00:39:21.640Z,59.05
2022-11-29T00:43:33.726Z,69.83
2022-11-29T00:47:45.249Z,70.47
2022-11-29T00:51:56.776Z,83.20
2022-11-29T00:56:08.641Z,84.93
2022-11-29T01:00:20.501Z,79.37
2022-11-29T01:04:32.115Z,71.37
2022-11-29T01:08:45.655Z,66.20
2022-11-29T01:12:57.257Z,79.10
2022-11-29T01:17:08.825Z,83.83
2022-11-29T01:21:22.816Z,66.43
2022-11-29T01:25:34.348Z,73.05
2022-11-29T01:29:45.927Z,69.33
2022-11-29T01:34:00.146Z,60.37
2022-11-29T01:38:11.680Z,67.63
2022-11-29T01:42:23.425Z,65.07
2022-11-29T01:46:38.399Z,81.90
2022-11-29T01:50:50.835Z,73.80
2022-11-29T01:55:05.435Z,70.40
2022-11-29T01:59:21.893Z,67.20
2022-11-29T02:03:33.537Z,65.67
2022-11-29T02:07:50.001Z,70.43
2022-11-29T02:12:19.852Z,71.33
2022-11-29T02:16:40.861Z,65.13
2022-11-29T02:21:47.210Z,61.73
2022-11-29T02:26:35.612Z,66.70
2022-11-29T02:31:05.322Z,78.50
2022-11-29T02:35:29.129Z,68.83
2022-11-29T02:40:06.970Z,64.40
2022-11-29T02:44:21.377Z,62.20
2022-11-29T02:48:46.308Z,66.27
2022-11-29T02:53:22.838Z,67.70
2022-11-29T02:57:58.488Z,66.65
2022-11-29T03:02:40.370Z,79.77
2022-11-29T03:07:25.455Z,66.17
2022-11-29T03:12:06.928Z,74.80
2022-11-29T03:16:44.772Z,80.13
2022-11-29T03:21:05.402Z,74.33
2022-11-29T03:25:32.889Z,67.60
2022-11-29T03:29:55.618Z,72.07
2022-11-29T03:34:44.095Z,85.17
2022-11-29T03:39:00.875Z,74.93
2022-11-29T03:43:26.793Z,78.80
2022-11-29T03:47:57.967Z,77.13
2022-11-29T03:52:26.695Z,74.07
2022-11-29T03:56:40.537Z,84.40
2022-11-29T04:01:13.845Z,69.70
2022-11-29T04:05:41.020Z,76.00
2022-11-29T04:10:25.514Z,82.67
2022-11-29T04:15:23.468Z,98.73
2022-11-29T04:19:53.967Z,69.83
2022-11-29T04:24:34.872Z,73.13
2022-11-29T04:28:49.408Z,71.43
2022-11-29T04:33:21.434Z,86.60
2022-11-29T04:37:57.818Z,67.13
2022-11-29T04:42:18.678Z,63.47
2022-11-29T04:46:56.461Z,59.50
2022-11-29T04:51:29.851Z,58.23
2022-11-29T04:56:11.192Z,68.70
2022-11-29T05:00:24.321Z,59.23
2022-11-29T05:04:53.268Z,64.27
2022-11-29T05:09:17.355Z,66.87
2022-11-29T05:13:45.339Z,77.80
2022-11-29T05:18:07.525Z,64.73
2022-11-29T05:22:32.032Z,83.43
2022-11-29T05:27:11.001Z,55.27
2022-11-29T05:31:52.839Z,89.67
2022-11-29T05:36:42.055Z,76.23
2022-11-29T05:41:01.627Z,68.73
2022-11-29T05:45:19.298Z,89.90
2022-11-29T05:50:03.196Z,69.27
2022-11-29T05:54:19.849Z,75.33
2022-11-29T05:58:44.700Z,66.10
2022-11-29T06:03:19.743Z,61.10
2022-11-29T06:07:39.665Z,67.30
2022-11-29T06:12:14.866Z,98.83
2022-11-29T06:17:05.942Z,104.67
2022-11-29T06:21:39.120Z,86.63
2022-11-29T06:26:18.002Z,76.47
2022-11-29T06:30:53.573Z,85.63
2022-11-29T06:35:13.241Z,45.27
2022-11-29T06:39:25.067Z,45.17
2022-11-29T06:43:36.853Z,55.27
2022-11-29T06:48:28.095Z,56.70
2022-11-29T06:52:58.456Z,54.47
2022-11-29T06:57:12.997Z,54.87
2022-11-29T07:01:41.993Z,80.10
2022-11-29T07:05:53.868Z,141.80
2022-11-29T07:10:10.577Z,56.00
2022-11-29T07:14:25.497Z,72.30
2022-11-29T07:19:14.428Z,90.33
2022-11-29T07:23:43.721Z,100.13
2022-11-29T07:28:26.466Z,59.80
2022-11-29T07:32:43.641Z,68.27
2022-11-29T07:37:04.779Z,45.30
2022-11-29T07:41:32.223Z,58.17
2022-11-29T07:45:43.885Z,59.40
2022-11-29T07:49:55.434Z,58.50
2022-11-29T07:54:07.164Z,61.43
2022-11-29T07:58:19.059Z,41.57
2022-11-29T08:02:32.331Z,53.60
2022-11-29T08:06:43.959Z,51.03
2022-11-29T08:10:55.577Z,75.27
2022-11-29T08:15:08.738Z,88.20
2022-11-29T08:19:20.335Z,68.87
2022-11-29T08:23:31.903Z,50.33
2022-11-29T08:27:43.529Z,66.27
2022-11-29T08:31:55.331Z,57.07
2022-11-29T08:36:15.994Z,53.57
2022-11-29T08:40:27.618Z,61.13
2022-11-29T08:44:39.209Z,48.93
2022-11-29T08:48:50.746Z,41.03
2022-11-29T08:53:43.700Z,37.83
2022-11-29T08:58:01.866Z,34.70
2022-11-29T09:02:13.446Z,43.27
2022-11-29T09:06:26.500Z,33.97
2022-11-29T09:10:42.187Z,34.63
2022-11-29T09:14:53.755Z,29.07
2022-11-29T09:19:05.768Z,41.20
2022-11-29T09:23:17.322Z,40.07
2022-11-29T09:27:28.958Z,30.03
2022-11-29T09:31:40.593Z,39.50
2022-11-29T09:35:58.084Z,28.40
2022-11-29T09:40:18.175Z,27.63
2022-11-29T09:44:48.614Z,33.37
2022-11-29T09:49:09.354Z,37.93
2022-11-29T09:53:48.053Z,29.43
2022-11-29T09:58:01.527Z,37.30
2022-11-29T10:02:22.464Z,27.40
2022-11-29T10:06:40.791Z,30.63
2022-11-29T10:11:36.088Z,20.10
2022-11-29T10:15:53.247Z,25.20
2022-11-29T10:20:17.111Z,23.37
2022-11-29T10:24:29.839Z,27.02
2022-11-29T10:28:48.570Z,29.20
2022-11-29T10:33:00.674Z,27.15
2022-11-29T10:37:22.445Z,28.77
2022-11-29T10:41:35.751Z,27.38
2022-11-29T10:45:56.127Z,25.33
2022-11-29T10:50:13.308Z,24.38
2022-11-29T10:54:38.410Z,23.53
2022-11-29T10:58:56.389Z,19.65
2022-11-29T11:03:33.940Z,18.50
2022-11-29T11:07:47.419Z,17.60
2022-11-29T11:12:02.872Z,19.07
2022-11-29T11:16:24.268Z,19.77
2022-11-29T11:20:40.344Z,20.47
2022-11-29T11:25:01.128Z,19.42
2022-11-29T11:29:22.457Z,24.08
2022-11-29T11:33:42.364Z,20.20
2022-11-29T11:37:56.813Z,19.35
2022-11-29T11:42:33.628Z,25.02
2022-11-29T11:46:50.267Z,25.53
2022-11-29T11:51:03.418Z,20.75
2022-11-29T11:55:21.201Z,23.67
2022-11-29T11:59:33.948Z,19.40
2022-11-29T12:03:52.830Z,24.05
2022-11-29T12:08:08.124Z,18.23
2022-11-29T12:12:26.206Z,22.05
2022-11-29T12:16:39.202Z,23.33
2022-11-29T12:21:17.556Z,21.77
2022-11-29T12:25:35.979Z,21.13
2022-11-29T12:29:47.569Z,19.02
2022-11-29T12:34:10.230Z,18.83
2022-11-29T12:38:49.561Z,23.83
2022-11-29T12:43:23.040Z,22.35
2022-11-29T12:47:40.992Z,27.88
2022-11-29T12:52:03.955Z,28.65
2022-11-29T12:56:34.247Z,23.08
2022-11-29T13:00:52.466Z,30.15
2022-11-29T13:05:19.086Z,21.83
2022-11-29T13:10:14.967Z,26.30
2022-11-29T13:14:43.889Z,19.92
2022-11-29T13:19:03.149Z,22.70
2022-11-29T13:24:07.870Z,22.67
2022-11-29T13:28:39.573Z,22.67
2022-11-29T13:32:59.041Z,25.00
2022-11-29T13:37:53.561Z,14.55
2022-11-29T13:42:25.087Z,19.40
2022-11-29T13:47:08.562Z,26.07
2022-11-29T13:51:30.566Z,25.70
2022-11-29T13:55:59.810Z,29.73
2022-11-29T14:00:39.785Z,24.67
2022-11-29T14:04:52.370Z,18.90
2022-11-29T14:09:21.054Z,22.33
2022-11-29T14:13:49.967Z,18.20
2022-11-29T14:18:07.251Z,27.20
2022-11-29T14:22:22.155Z,24.47
2022-11-29T14:26:33.819Z,28.67
2022-11-29T14:30:51.047Z,25.97
2022-11-29T14:35:11.806Z,27.88
2022-11-29T14:39:33.166Z,23.65
2022-11-29T14:43:44.837Z,30.00
2022-11-29T14:47:57.402Z,24.25
2022-11-29T14:52:21.575Z,24.37
2022-11-29T14:56:35.031Z,23.03
2022-11-29T15:00:49.546Z,21.67
2022-11-29T15:05:16.744Z,21.87
2022-11-29T15:09:30.075Z,28.67
2022-11-29T15:13:55.038Z,26.73
2022-11-29T15:18:19.994Z,22.93
2022-11-29T15:22:46.780Z,23.17
2022-11-29T15:27:01.064Z,28.53
2022-11-29T15:31:16.214Z,23.37
2022-11-29T15:35:28.544Z,30.20
2022-11-29T15:39:40.251Z,24.48
2022-11-29T15:43:55.897Z,24.53
2022-11-29T15:48:24.096Z,26.43
2022-11-29T15:52:38.417Z,26.40
2022-11-29T15:57:00.642Z,19.95
2022-11-29T16:01:20.019Z,26.60
2022-11-29T16:05:35.104Z,28.38
2022-11-29T16:09:56.943Z,26.50
2022-11-29T16:14:11.420Z,22.87
2022-11-29T16:18:25.483Z,24.87
2022-11-29T16:22:37.092Z,31.47
2022-11-29T16:26:50.930Z,27.83
2022-11-29T16:31:04.779Z,33.07
2022-11-29T16:35:22.125Z,26.73
2022-11-29T16:39:36.983Z,24.77
2022-11-29T16:43:55.195Z,36.17
2022-11-29T16:48:21.917Z,36.10
2022-11-29T16:52:34.415Z,33.17
2022-11-29T16:56:45.988Z,42.80
2022-11-29T17:00:57.552Z,32.60
2022-11-29T17:05:09.128Z,29.53
2022-11-29T17:09:27.120Z,31.50
2022-11-29T17:13:38.837Z,30.97
2022-11-29T17:17:50.427Z,28.63
2022-11-29T17:22:02.110Z,32.43
2022-11-29T17:26:15.436Z,30.97
2022-11-29T17:30:28.870Z,28.30
2022-11-29T17:34:40.441Z,26.00
2022-11-29T17:38:52.194Z,28.03
2022-11-29T17:43:03.766Z,24.70
2022-11-29T17:47:15.353Z,24.60
2022-11-29T17:56:09.951Z,29.47
2022-11-29T18:00:21.556Z,25.10
2022-11-29T18:04:33.150Z,31.00
2022-11-29T18:08:47.710Z,23.67
2022-11-29T18:12:59.273Z,22.57
2022-11-29T18:17:10.945Z,22.93
2022-11-29T18:21:22.830Z,21.13
2022-11-29T18:25:39.121Z,23.97
2022-11-29T18:29:51.507Z,21.63
2022-11-29T18:34:06.983Z,27.43
2022-11-29T18:38:18.833Z,28.87
2022-11-29T18:42:30.432Z,26.47
2022-11-29T18:46:44.040Z,30.17
2022-11-29T18:50:55.606Z,31.77
2022-11-29T18:55:07.555Z,28.23
2022-11-29T18:59:19.169Z,26.93
2022-11-29T19:03:34.106Z,26.23
2022-11-29T19:07:45.733Z,31.00
2022-11-29T19:11:57.326Z,25.03
2022-11-29T19:16:13.407Z,20.83
2022-11-29T19:20:25.582Z,26.93
2022-11-29T19:24:37.069Z,24.67
2022-11-29T19:28:48.683Z,24.30
2022-11-29T19:33:00.246Z,23.20
2022-11-29T19:37:11.896Z,22.30
2022-11-29T19:41:26.190Z,24.63
2022-11-29T19:45:40.941Z,23.47
2022-11-29T19:49:52.885Z,27.67
2022-11-29T19:54:07.095Z,20.90
2022-11-29T19:58:20.820Z,23.10
2022-11-29T20:02:32.548Z,19.20
2022-11-29T20:06:44.527Z,20.60
2022-11-29T20:10:56.433Z,25.93
2022-11-29T20:15:08.328Z,26.27
2022-11-29T20:19:21.580Z,26.53
2022-11-29T20:23:33.658Z,27.03
2022-11-29T20:27:45.203Z,23.60
2022-11-29T20:31:56.848Z,24.00
2022-11-29T20:36:25.771Z,23.10
2022-11-29T20:40:50.967Z,21.60
2022-11-29T20:45:11.261Z,22.77
2022-11-29T20:49:23.006Z,24.17
2022-11-29T20:53:40.152Z,20.90
2022-11-29T20:57:51.723Z,17.53
2022-11-29T21:02:03.649Z,19.80
2022-11-29T21:06:15.370Z,20.03
2022-11-29T21:10:26.956Z,21.67
2022-11-29T21:14:38.844Z,22.83
2022-11-29T21:18:58.898Z,20.20
2022-11-29T21:23:27.046Z,16.60
2022-11-29T21:27:38.843Z,21.43
2022-11-29T21:31:53.826Z,20.77
2022-11-29T21:36:06.192Z,20.93
2022-11-29T21:40:17.813Z,20.50
2022-11-29T21:44:29.367Z,24.40
2022-11-29T21:48:42.432Z,21.23
2022-11-29T21:52:55.020Z,23.63
2022-11-29T21:57:06.652Z,21.73
2022-11-29T22:01:20.105Z,23.13
2022-11-29T22:05:31.724Z,26.90
2022-11-29T22:09:43.347Z,24.20
2022-11-29T22:14:13.617Z,28.17
2022-11-29T22:18:27.832Z,19.53
2022-11-29T22:22:39.433Z,20.27
2022-11-29T22:26:52.571Z,20.70
2022-11-29T22:31:12.294Z,21.50
2022-11-29T22:35:23.958Z,18.60
2022-11-29T22:39:35.524Z,16.93
2022-11-29T22:43:47.117Z,16.57
2022-11-29T22:47:58.717Z,17.33
2022-11-29T22:52:10.308Z,17.70
2022-11-29T22:56:27.746Z,18.80
2022-11-29T23:00:44.029Z,16.30
2022-11-29T23:04:55.760Z,19.37
2022-11-29T23:09:16.602Z,15.97
2022-11-29T23:13:28.440Z,19.77
2022-11-29T23:17:40.159Z,16.63
2022-11-29T23:21:51.975Z,15.43
2022-11-29T23:26:07.348Z,17.77
2022-11-29T23:30:18.886Z,14.90
2022-11-29T23:34:30.402Z,15.30
2022-11-29T23:38:42.267Z,15.17
2022-11-29T23:42:54.158Z,16.50
2022-11-29T23:47:05.626Z,16.73
2022-11-29T23:51:18.613Z,15.37
2022-11-29T23:55:30.165Z,14.07
2022-11-29T23:59:41.636Z,16.87
